Terminal Aerodrome Forecast
Issued by NWS

Home | Current Version | Previous Version | Text Only | Print | Product List | Glossary On
Versions: 1 2 3 4 5 6 7 8 9 10 11 12 13 14 15 16 17 18 19
573
FTUS41 KBTV 170520
TAFSLK
TAF
KSLK 170520Z 1706/1806 24004KT P6SM SCT250
     FM170900 00000KT P6SM SCT200
     FM171700 10004KT P6SM VCSH BKN050
     FM171900 10005KT 4SM -SNPL BR OVC040
     FM172300 12008KT 2SM -SNPL BR OVC010=

USA.gov is the U.S. government's official web portal to all federal, state and local government web resources and services.